»·PEaware :: N299CD KTUS-KPHX

N299CD :: KTUS-KPHX

FLIGHT INFORMATION

Flight Status: Arrived
Operator: Privately registered:
United States
More flights under this callsign
Pilot: Anonymous 30216 (30216)
Aircraft: BEECH AIRCRAFT BONANZA
(BE36)
More flights by this aircraft type
Origin: KTUS Tucson Intl
United States
Destination: KPHX Phoenix Sky Harbor Intl
United States
More flights between these airports :: More routes between these airports
Route: TUS V105 PXR
File this flight plan on PilotEdge
Remarks:
Altitude:
(Current/Filed)
12,000ft
Speed:
(Current/Filed)
160kts
Departed: 13-Sep-20 04:02 PM
Arrived: 13-Sep-20 05:12 PM
Distance/Time
Traveled:
96nm/1:09
Distance/Time
To Go:
Arrived

Flight Plot

Page will automatically refresh every two minutes.

Flight plan parsing failed; only flown route is shown


Map Options




Map Legend


Flown Route
Filed Route
Departure Airport
Arrival Airport
Navaid (VOR, NDB)
Fix

Horizontal Profiles

Position Reports

Time Latitude Longitude Heading Altitude Ground
Speed
13-Sep-20 15:42 32.115009 -110.932599 224 2617ft 0kts
13-Sep-20 15:43 32.115009 -110.932599 224 2617ft 0kts
13-Sep-20 15:44 32.115009 -110.932599 224 2617ft 0kts
13-Sep-20 15:45 32.115009 -110.932599 224 2617ft 0kts
13-Sep-20 15:46 32.115009 -110.932599 224 2617ft 0kts
13-Sep-20 15:47 32.115009 -110.932599 224 2617ft 0kts
13-Sep-20 15:48 32.115009 -110.932599 224 2617ft 0kts
13-Sep-20 15:49 32.115009 -110.932599 224 2617ft 0kts
13-Sep-20 15:50 32.115003 -110.932606 224 2617ft 0kts
13-Sep-20 15:51 32.114401 -110.932860 143 2617ft 2kts
13-Sep-20 15:52 32.113723 -110.933286 232 2615ft 10kts
13-Sep-20 15:53 32.115305 -110.935878 315 2609ft 10kts
13-Sep-20 15:54 32.117646 -110.938666 313 2600ft 12kts
13-Sep-20 15:55 32.119946 -110.941341 314 2593ft 12kts
13-Sep-20 15:56 32.122486 -110.944312 317 2582ft 13kts
13-Sep-20 15:57 32.124602 -110.946831 309 2573ft 8kts
13-Sep-20 15:58 32.124667 -110.947537 221 2571ft 0kts
13-Sep-20 15:59 32.124667 -110.947537 221 2571ft 0kts
13-Sep-20 16:00 32.123724 -110.948568 82 2572ft 13kts
13-Sep-20 16:01 32.114652 -110.935752 119 2884ft 93kts
13-Sep-20 16:02 32.098055 -110.903343 120 3654ft 135kts
13-Sep-20 16:03 32.077478 -110.862756 120 4377ft 149kts
13-Sep-20 16:04 32.055999 -110.820286 119 5082ft 151kts
13-Sep-20 16:05 32.034529 -110.777838 119 5780ft 151kts
13-Sep-20 16:06 32.013229 -110.735751 119 6475ft 149kts
13-Sep-20 16:07 31.992172 -110.694160 119 7171ft 148kts
13-Sep-20 16:08 31.968824 -110.655516 161 7853ft 147kts
13-Sep-20 16:09 31.957687 -110.686898 299 8545ft 139kts
13-Sep-20 16:10 31.976227 -110.726584 300 9241ft 137kts
13-Sep-20 16:11 31.998841 -110.760355 310 9916ft 134kts
13-Sep-20 16:12 32.021147 -110.794228 307 10603ft 130kts
13-Sep-20 16:13 32.042038 -110.827770 307 11295ft 124kts
13-Sep-20 16:14 32.061722 -110.859824 306 11962ft 119kts
13-Sep-20 16:15 32.084179 -110.896444 306 12006ft 154kts
13-Sep-20 16:16 32.108215 -110.940343 301 12001ft 165kts
13-Sep-20 16:17 32.131587 -110.987245 301 11999ft 167kts
13-Sep-20 16:18 32.154998 -111.034057 301 12000ft 167kts
13-Sep-20 16:19 32.178450 -111.081058 301 11999ft 167kts
13-Sep-20 16:20 32.202184 -111.128636 301 12000ft 171kts
13-Sep-20 16:21 32.226313 -111.177118 301 12000ft 172kts
13-Sep-20 16:22 32.250496 -111.225765 301 11999ft 172kts
13-Sep-20 16:23 32.274668 -111.274466 301 12000ft 172kts
13-Sep-20 16:24 32.298835 -111.323217 301 11998ft 172kts
13-Sep-20 16:25 32.320274 -111.366526 301 11999ft 172kts
13-Sep-20 16:26 32.344395 -111.415308 301 11999ft 172kts
13-Sep-20 16:27 32.368566 -111.464257 301 12001ft 172kts
13-Sep-20 16:28 32.398497 -111.506857 325 12000ft 171kts
13-Sep-20 16:29 32.437536 -111.538915 326 12000ft 171kts
13-Sep-20 16:30 32.476570 -111.570938 326 11999ft 171kts
13-Sep-20 16:31 32.515641 -111.603025 326 11999ft 171kts
13-Sep-20 16:32 32.554809 -111.635229 326 11998ft 171kts
13-Sep-20 16:33 32.593554 -111.666967 326 11999ft 171kts
13-Sep-20 16:34 32.632636 -111.698987 325 11999ft 171kts
13-Sep-20 16:35 32.671715 -111.731313 325 12028ft 169kts
13-Sep-20 16:36 32.710517 -111.763219 325 12037ft 170kts
13-Sep-20 16:37 32.749536 -111.795478 325 12036ft 171kts
13-Sep-20 16:38 32.788570 -111.827776 325 12040ft 171kts
13-Sep-20 16:39 32.827556 -111.860076 325 12035ft 171kts
13-Sep-20 16:40 32.866561 -111.892421 325 12036ft 171kts
13-Sep-20 16:41 32.909727 -111.912900 351 12036ft 170kts
13-Sep-20 16:42 32.956437 -111.921680 351 12036ft 170kts
13-Sep-20 16:43 33.003581 -111.930586 351 12035ft 166kts
13-Sep-20 16:44 33.049752 -111.939214 351 12043ft 169kts
13-Sep-20 16:45 33.096306 -111.947628 351 12047ft 170kts
13-Sep-20 16:46 33.142953 -111.955982 351 12045ft 170kts
13-Sep-20 16:47 33.189977 -111.962948 353 12048ft 170kts
13-Sep-20 16:48 33.236365 -111.969243 353 12043ft 162kts
13-Sep-20 16:49 33.280074 -111.975229 353 12044ft 155kts
13-Sep-20 16:50 33.322631 -111.981051 353 12045ft 153kts
13-Sep-20 16:51 33.363196 -111.986607 353 12046ft 150kts
13-Sep-20 16:52 33.401801 -111.991476 345 12037ft 150kts
13-Sep-20 16:53 33.404699 -112.033116 250 11461ft 161kts
13-Sep-20 16:54 33.389112 -112.083295 250 10558ft 155kts
13-Sep-20 16:55 33.374549 -112.129705 250 9639ft 143kts
13-Sep-20 16:56 33.360661 -112.174006 250 8741ft 143kts
13-Sep-20 16:57 33.346635 -112.218849 250 7843ft 144kts
13-Sep-20 16:58 33.332706 -112.263515 250 6947ft 142kts
13-Sep-20 17:00 33.319310 -112.307795 263 6042ft 141kts
13-Sep-20 17:01 33.347974 -112.328069 350 5146ft 133kts
13-Sep-20 17:02 33.384164 -112.335368 354 4245ft 132kts
13-Sep-20 17:03 33.408211 -112.309502 50 4084ft 120kts
13-Sep-20 17:04 33.427790 -112.275970 82 4080ft 124kts
13-Sep-20 17:05 33.428638 -112.235489 88 4081ft 119kts
13-Sep-20 17:06 33.428772 -112.195641 88 3844ft 116kts
13-Sep-20 17:07 33.428796 -112.163344 88 3360ft 99kts
13-Sep-20 17:08 33.428825 -112.130394 88 2838ft 99kts
13-Sep-20 17:09 33.428839 -112.099388 88 2331ft 90kts
13-Sep-20 17:10 33.428847 -112.070933 88 1870ft 90kts
13-Sep-20 17:11 33.428847 -112.040850 88 1384ft 90kts
13-Sep-20 17:12 33.428871 -112.020183 72 1113ft 23kts
13-Sep-20 17:13 33.428032 -112.016643 175 1115ft 0kts
13-Sep-20 17:14 33.427685 -112.017001 270 1114ft 0kts

Navigation Log

Ident Type
Flight plan parsing failed, navigation log unavailable